LEMD/MAD METAR and TAF weather

Enter ICAO airport designator
Station Type Date Time Source
LEMD METAR 2022/01/26 20:00 UTC NOAA

LEMD 262000Z VRB01KT CAVOK 04/00 Q1028 NOSIG


Station Type Date Time Source
LEMD Decoded METAR 2022/01/26 20:00 UTC NOAA

Madrid / Barajas, Spain (LEMD) 40-27N 003-33W 582M
Jan 26, 2022 - 03:00 PM EST / 2022.01.26 2000 UTC
Wind: Variable at 1 MPH (1 KT):0
Visibility: greater than 7 mile(s):0
Temperature: 39 F (4 C)
Dew Point: 32 F (0 C)
Relative Humidity: 75%
Pressure (altimeter): 30.36 in. Hg (1028 hPa)
ob: LEMD 262000Z VRB01KT CAVOK 04/00 Q1028 NOSIG
cycle: 20

Station Type Date Time Source
LEMD TAF 2022/01/26 18:28 UTC NOAA

TAF LEMD 261700Z 2618/2724 VRB05KT CAVOK TX13/2715Z TNM03/2706Z

Example: see airport list